»·PEaware :: N623JB KBFL-KMHV

N623JB :: KBFL-KMHV

FLIGHT INFORMATION

Flight Status: Arrived
Operator: Privately registered:
United States
More flights under this callsign
Pilot: Jonathan B. (32222)
Aircraft: CIRRUS SR-22
(SR22)
More flights by this aircraft type
Origin: KBFL Meadows
United States
Destination: KMHV Mojave
United States
More flights between these airports :: More routes between these airports
Route:
File this flight plan on PilotEdge
Remarks:
Altitude:
(Current/Filed)
7,500ft
Speed:
(Current/Filed)
140kts
Departed: 09-Nov-20 09:05 AM
Arrived: 09-Nov-20 09:39 AM
Distance/Time
Traveled:
6799nm/0:34
Distance/Time
To Go:
Arrived

Flight Plot

Page will automatically refresh every two minutes.


Map Options




Map Legend


Flown Route
Filed Route
Departure Airport
Arrival Airport
Navaid (VOR, NDB)
Fix

Horizontal Profiles

Position Reports

Time Latitude Longitude Heading Altitude Ground
Speed
09-Nov-20 08:59 35.432356 -119.050158 224 485ft 0kts
09-Nov-20 09:00 35.431930 -119.050236 153 485ft 12kts
09-Nov-20 09:01 35.428911 -119.047978 135 482ft 22kts
09-Nov-20 09:02 35.425739 -119.044756 227 472ft 0kts
09-Nov-20 09:03 35.425739 -119.044756 227 472ft 0kts
09-Nov-20 09:04 35.425739 -119.044756 227 472ft 0kts
09-Nov-20 09:05 35.427121 -119.048105 315 481ft 60kts
09-Nov-20 09:06 35.448142 -119.073125 331 1551ft 120kts
09-Nov-20 09:06 35.469708 -119.055295 45 2749ft 127kts
09-Nov-20 09:08 35.496207 -119.023419 44 4551ft 112kts
09-Nov-20 09:08 35.482410 -119.004720 167 5618ft 110kts
09-Nov-20 09:10 35.447313 -118.993347 165 7049ft 113kts
09-Nov-20 09:10 35.418397 -118.982709 164 7472ft 152kts
09-Nov-20 09:12 35.385480 -118.936794 115 7486ft 155kts
09-Nov-20 09:12 35.368575 -118.899104 116 7497ft 149kts
09-Nov-20 09:13 35.350139 -118.853923 117 7501ft 148kts
09-Nov-20 09:14 35.331702 -118.808741 117 7501ft 148kts
09-Nov-20 09:15 35.313090 -118.763338 117 7501ft 150kts
09-Nov-20 09:16 35.294264 -118.717273 117 7499ft 151kts
09-Nov-20 09:17 35.275285 -118.671245 117 7499ft 151kts
09-Nov-20 09:18 35.251003 -118.631316 157 7503ft 149kts
09-Nov-20 09:19 35.217767 -118.602546 120 7495ft 150kts
09-Nov-20 09:20 35.200490 -118.556188 114 7504ft 150kts
09-Nov-20 09:21 35.178064 -118.515933 150 7493ft 147kts
09-Nov-20 09:22 35.159946 -118.471135 111 7502ft 150kts
09-Nov-20 09:23 35.143050 -118.424257 116 7500ft 151kts
09-Nov-20 09:24 35.134158 -118.401939 117 7498ft 151kts
09-Nov-20 09:25 35.104754 -118.369336 156 7495ft 145kts
09-Nov-20 09:26 35.075226 -118.337726 136 7497ft 139kts
09-Nov-20 09:27 35.047620 -118.304805 137 7500ft 138kts
09-Nov-20 09:28 35.023233 -118.294414 258 7509ft 126kts
09-Nov-20 09:29 35.031599 -118.334139 341 7177ft 133kts
09-Nov-20 09:30 35.068733 -118.335327 342 6775ft 133kts
09-Nov-20 09:31 35.057935 -118.349328 124 6522ft 129kts
09-Nov-20 09:32 35.045881 -118.309103 101 6501ft 124kts
09-Nov-20 09:33 35.048057 -118.265491 85 5809ft 132kts
09-Nov-20 09:34 35.052168 -118.220197 82 4729ft 135kts
09-Nov-20 09:35 35.053994 -118.175708 93 3703ft 117kts
09-Nov-20 09:36 35.052909 -118.141789 90 3245ft 98kts
09-Nov-20 09:37 35.059038 -118.132060 270 3083ft 86kts
09-Nov-20 09:38 35.058991 -118.149943 225 2752ft 10kts
09-Nov-20 09:39 35.058485 -118.149794 137 2753ft 0kts
09-Nov-20 09:40 35.057610 -118.150311 271 2753ft 12kts
09-Nov-20 09:41 35.057237 -118.150887 90 2754ft 0kts
09-Nov-20 09:42 0.000408 0.013975 0 3ft 0kts
09-Nov-20 09:43 0.000408 0.013975 0 3ft 0kts
09-Nov-20 09:44 0.000408 0.013975 0 3ft 0kts
09-Nov-20 09:45 0.000408 0.013975 0 3ft 0kts
09-Nov-20 09:46 0.000408 0.013975 0 3ft 0kts
09-Nov-20 09:47 0.000408 0.013975 0 3ft 0kts
09-Nov-20 09:48 0.000408 0.013975 0 3ft 0kts
09-Nov-20 09:49 0.000408 0.013975 0 3ft 0kts
09-Nov-20 09:50 0.000408 0.013975 0 3ft 0kts
09-Nov-20 09:51 0.000408 0.013975 0 3ft 0kts
09-Nov-20 09:52 0.000408 0.013975 0 3ft 0kts

Navigation Log

Ident Type
Flight plan parsing failed, navigation log unavailable